sensor_id;sensor_type;location;lat;lon;timestamp;temperature;humidity
4548;DHT22;2286;51.570;7.090;2024-03-06T00:01:24;6.10;99.90
4548;DHT22;2286;51.570;7.090;2024-03-06T00:03:50;6.20;99.90
4548;DHT22;2286;51.570;7.090;2024-03-06T00:06:18;6.20;99.90
4548;DHT22;2286;51.570;7.090;2024-03-06T00:08:45;6.20;99.90
4548;DHT22;2286;51.570;7.090;2024-03-06T00:11:12;6.20;99.90
4548;DHT22;2286;51.570;7.090;2024-03-06T00:13:39;6.20;99.90
4548;DHT22;2286;51.570;7.090;2024-03-06T00:16:06;6.20;99.90
4548;DHT22;2286;51.570;7.090;2024-03-06T00:18:35;6.20;99.90
4548;DHT22;2286;51.570;7.090;2024-03-06T00:21:02;6.20;99.90
4548;DHT22;2286;51.570;7.090;2024-03-06T00:23:29;6.20;99.90
4548;DHT22;2286;51.570;7.090;2024-03-06T00:25:56;6.20;99.90
4548;DHT22;2286;51.570;7.090;2024-03-06T00:28:23;6.20;99.90
4548;DHT22;2286;51.570;7.090;2024-03-06T00:30:50;6.20;99.90
4548;DHT22;2286;51.570;7.090;2024-03-06T00:33:17;6.10;99.90
4548;DHT22;2286;51.570;7.090;2024-03-06T00:35:45;6.10;99.90
4548;DHT22;2286;51.570;7.090;2024-03-06T00:38:12;6.10;99.90
4548;DHT22;2286;51.570;7.090;2024-03-06T00:40:40;6.10;99.90
4548;DHT22;2286;51.570;7.090;2024-03-06T00:43:07;6.10;99.90
4548;DHT22;2286;51.570;7.090;2024-03-06T00:45:34;6.10;99.90
4548;DHT22;2286;51.570;7.090;2024-03-06T00:48:01;6.10;99.90
4548;DHT22;2286;51.570;7.090;2024-03-06T00:50:29;6.00;99.90
4548;DHT22;2286;51.570;7.090;2024-03-06T00:52:57;6.00;99.90
4548;DHT22;2286;51.570;7.090;2024-03-06T00:55:24;5.90;99.90
4548;DHT22;2286;51.570;7.090;2024-03-06T00:57:51;5.90;99.90
4548;DHT22;2286;51.570;7.090;2024-03-06T01:00:19;5.90;99.90
4548;DHT22;2286;51.570;7.090;2024-03-06T01:02:48;5.90;99.90
4548;DHT22;2286;51.570;7.090;2024-03-06T01:05:15;5.90;99.90
4548;DHT22;2286;51.570;7.090;2024-03-06T01:07:42;5.90;99.90
4548;DHT22;2286;51.570;7.090;2024-03-06T01:10:11;5.90;99.90
4548;DHT22;2286;51.570;7.090;2024-03-06T01:12:39;5.90;99.90
4548;DHT22;2286;51.570;7.090;2024-03-06T01:15:06;5.80;99.90
4548;DHT22;2286;51.570;7.090;2024-03-06T01:17:34;5.70;99.90
4548;DHT22;2286;51.570;7.090;2024-03-06T01:20:01;5.70;99.90
4548;DHT22;2286;51.570;7.090;2024-03-06T01:22:30;5.60;99.90
4548;DHT22;2286;51.570;7.090;2024-03-06T01:24:56;5.60;99.90
4548;DHT22;2286;51.570;7.090;2024-03-06T01:27:25;5.60;99.90
4548;DHT22;2286;51.570;7.090;2024-03-06T01:29:52;5.50;99.90
4548;DHT22;2286;51.570;7.090;2024-03-06T01:32:19;5.50;99.90
4548;DHT22;2286;51.570;7.090;2024-03-06T01:34:46;5.40;99.90
4548;DHT22;2286;51.570;7.090;2024-03-06T01:37:13;5.30;99.90
4548;DHT22;2286;51.570;7.090;2024-03-06T01:39:40;5.30;99.90
4548;DHT22;2286;51.570;7.090;2024-03-06T01:42:07;5.20;99.90
4548;DHT22;2286;51.570;7.090;2024-03-06T01:44:36;5.20;99.90
4548;DHT22;2286;51.570;7.090;2024-03-06T01:47:03;5.10;99.90
4548;DHT22;2286;51.570;7.090;2024-03-06T01:49:32;5.10;99.90
4548;DHT22;2286;51.570;7.090;2024-03-06T01:51:59;5.10;99.90
4548;DHT22;2286;51.570;7.090;2024-03-06T01:54:28;5.00;99.90
4548;DHT22;2286;51.570;7.090;2024-03-06T01:56:55;4.90;99.90
4548;DHT22;2286;51.570;7.090;2024-03-06T01:59:25;4.80;99.90
4548;DHT22;2286;51.570;7.090;2024-03-06T02:01:54;4.80;99.90
4548;DHT22;2286;51.570;7.090;2024-03-06T02:04:22;4.70;99.90
4548;DHT22;2286;51.570;7.090;2024-03-06T02:06:51;4.60;99.90
4548;DHT22;2286;51.570;7.090;2024-03-06T02:09:18;4.60;99.90
4548;DHT22;2286;51.570;7.090;2024-03-06T02:11:45;4.50;99.90
4548;DHT22;2286;51.570;7.090;2024-03-06T02:14:12;4.40;99.90
4548;DHT22;2286;51.570;7.090;2024-03-06T02:16:39;4.30;99.90
4548;DHT22;2286;51.570;7.090;2024-03-06T02:19:08;4.40;99.90
4548;DHT22;2286;51.570;7.090;2024-03-06T02:21:36;4.30;99.90
4548;DHT22;2286;51.570;7.090;2024-03-06T02:24:03;4.30;99.90
4548;DHT22;2286;51.570;7.090;2024-03-06T02:26:30;4.20;99.90
4548;DHT22;2286;51.570;7.090;2024-03-06T02:28:58;4.10;99.90
4548;DHT22;2286;51.570;7.090;2024-03-06T02:31:25;4.10;99.90
4548;DHT22;2286;51.570;7.090;2024-03-06T02:33:52;4.10;99.90
4548;DHT22;2286;51.570;7.090;2024-03-06T02:36:19;4.00;99.90
4548;DHT22;2286;51.570;7.090;2024-03-06T02:38:49;4.00;99.90
4548;DHT22;2286;51.570;7.090;2024-03-06T02:41:15;4.00;99.90
4548;DHT22;2286;51.570;7.090;2024-03-06T02:43:43;3.90;99.90
4548;DHT22;2286;51.570;7.090;2024-03-06T02:46:10;3.80;99.90
4548;DHT22;2286;51.570;7.090;2024-03-06T02:48:37;3.80;99.90
4548;DHT22;2286;51.570;7.090;2024-03-06T02:51:05;3.70;99.90
4548;DHT22;2286;51.570;7.090;2024-03-06T02:53:31;3.60;99.90
4548;DHT22;2286;51.570;7.090;2024-03-06T02:56:00;3.50;99.90
4548;DHT22;2286;51.570;7.090;2024-03-06T02:58:27;3.50;99.90
4548;DHT22;2286;51.570;7.090;2024-03-06T03:00:57;3.50;99.90
4548;DHT22;2286;51.570;7.090;2024-03-06T03:03:24;3.40;99.90
4548;DHT22;2286;51.570;7.090;2024-03-06T03:05:51;3.50;99.90
4548;DHT22;2286;51.570;7.090;2024-03-06T03:08:18;3.40;99.90
4548;DHT22;2286;51.570;7.090;2024-03-06T03:10:45;3.40;99.90
4548;DHT22;2286;51.570;7.090;2024-03-06T03:13:15;3.50;99.90
4548;DHT22;2286;51.570;7.090;2024-03-06T03:15:42;3.50;99.90
4548;DHT22;2286;51.570;7.090;2024-03-06T03:18:08;3.40;99.90
4548;DHT22;2286;51.570;7.090;2024-03-06T03:20:35;3.40;99.90
4548;DHT22;2286;51.570;7.090;2024-03-06T03:23:03;3.40;99.90
4548;DHT22;2286;51.570;7.090;2024-03-06T03:25:31;3.40;99.90
4548;DHT22;2286;51.570;7.090;2024-03-06T03:27:59;3.40;99.90
4548;DHT22;2286;51.570;7.090;2024-03-06T03:30:27;3.40;99.90
4548;DHT22;2286;51.570;7.090;2024-03-06T03:32:54;3.30;99.90
4548;DHT22;2286;51.570;7.090;2024-03-06T03:35:21;3.30;99.90
4548;DHT22;2286;51.570;7.090;2024-03-06T03:37:50;3.30;99.90
4548;DHT22;2286;51.570;7.090;2024-03-06T03:40:18;3.20;99.90
4548;DHT22;2286;51.570;7.090;2024-03-06T03:42:45;3.20;99.90
4548;DHT22;2286;51.570;7.090;2024-03-06T03:45:12;3.10;99.90
4548;DHT22;2286;51.570;7.090;2024-03-06T03:47:40;3.20;99.90
4548;DHT22;2286;51.570;7.090;2024-03-06T03:50:09;3.10;99.90
4548;DHT22;2286;51.570;7.090;2024-03-06T03:52:36;3.20;99.90
4548;DHT22;2286;51.570;7.090;2024-03-06T03:55:07;3.20;99.90
4548;DHT22;2286;51.570;7.090;2024-03-06T03:57:34;3.20;99.90
4548;DHT22;2286;51.570;7.090;2024-03-06T04:00:01;3.30;99.90
4548;DHT22;2286;51.570;7.090;2024-03-06T04:02:28;3.30;99.90
4548;DHT22;2286;51.570;7.090;2024-03-06T04:04:56;3.30;99.90
4548;DHT22;2286;51.570;7.090;2024-03-06T04:07:23;3.30;99.90
4548;DHT22;2286;51.570;7.090;2024-03-06T04:09:50;3.40;99.90
4548;DHT22;2286;51.570;7.090;2024-03-06T04:12:17;3.40;99.90
4548;DHT22;2286;51.570;7.090;2024-03-06T04:14:44;3.30;99.90
4548;DHT22;2286;51.570;7.090;2024-03-06T04:17:11;3.30;99.90
4548;DHT22;2286;51.570;7.090;2024-03-06T04:19:38;3.20;99.90
4548;DHT22;2286;51.570;7.090;2024-03-06T04:22:06;3.20;99.90
4548;DHT22;2286;51.570;7.090;2024-03-06T04:24:34;3.10;99.90
4548;DHT22;2286;51.570;7.090;2024-03-06T04:27:01;3.10;99.90
4548;DHT22;2286;51.570;7.090;2024-03-06T04:29:28;3.10;99.90
4548;DHT22;2286;51.570;7.090;2024-03-06T04:31:55;3.00;99.90
4548;DHT22;2286;51.570;7.090;2024-03-06T04:34:23;3.00;99.90
4548;DHT22;2286;51.570;7.090;2024-03-06T04:36:50;2.90;99.90
4548;DHT22;2286;51.570;7.090;2024-03-06T04:39:19;2.80;99.90
4548;DHT22;2286;51.570;7.090;2024-03-06T04:41:46;2.80;99.90
4548;DHT22;2286;51.570;7.090;2024-03-06T04:44:13;2.80;99.90
4548;DHT22;2286;51.570;7.090;2024-03-06T04:46:40;2.80;99.90
4548;DHT22;2286;51.570;7.090;2024-03-06T04:49:07;2.80;99.90
4548;DHT22;2286;51.570;7.090;2024-03-06T04:51:34;2.80;99.90
4548;DHT22;2286;51.570;7.090;2024-03-06T04:54:01;2.80;99.90
4548;DHT22;2286;51.570;7.090;2024-03-06T04:56:30;2.80;99.90
4548;DHT22;2286;51.570;7.090;2024-03-06T04:58:57;2.80;99.90
4548;DHT22;2286;51.570;7.090;2024-03-06T05:01:28;2.80;99.90
4548;DHT22;2286;51.570;7.090;2024-03-06T05:03:55;2.70;99.90
4548;DHT22;2286;51.570;7.090;2024-03-06T05:06:22;2.70;99.90
4548;DHT22;2286;51.570;7.090;2024-03-06T05:08:49;2.70;99.90
4548;DHT22;2286;51.570;7.090;2024-03-06T05:11:16;2.60;99.90
4548;DHT22;2286;51.570;7.090;2024-03-06T05:13:44;2.70;99.90
4548;DHT22;2286;51.570;7.090;2024-03-06T05:16:12;2.70;99.90
4548;DHT22;2286;51.570;7.090;2024-03-06T05:18:38;2.70;99.90
4548;DHT22;2286;51.570;7.090;2024-03-06T05:21:05;2.70;99.90
4548;DHT22;2286;51.570;7.090;2024-03-06T05:23:32;2.60;99.90
4548;DHT22;2286;51.570;7.090;2024-03-06T05:26:00;2.50;99.90
4548;DHT22;2286;51.570;7.090;2024-03-06T05:28:26;2.50;99.90
4548;DHT22;2286;51.570;7.090;2024-03-06T05:30:55;2.70;99.90
4548;DHT22;2286;51.570;7.090;2024-03-06T05:33:22;2.60;99.90
4548;DHT22;2286;51.570;7.090;2024-03-06T05:35:49;2.60;99.90
4548;DHT22;2286;51.570;7.090;2024-03-06T05:38:16;2.60;99.90
4548;DHT22;2286;51.570;7.090;2024-03-06T05:40:44;2.60;99.90
4548;DHT22;2286;51.570;7.090;2024-03-06T05:43:11;2.60;99.90
4548;DHT22;2286;51.570;7.090;2024-03-06T05:45:38;2.50;99.90
4548;DHT22;2286;51.570;7.090;2024-03-06T05:48:07;2.50;99.90
4548;DHT22;2286;51.570;7.090;2024-03-06T05:50:34;2.40;99.90
4548;DHT22;2286;51.570;7.090;2024-03-06T05:53:02;2.40;99.90
4548;DHT22;2286;51.570;7.090;2024-03-06T05:55:28;2.30;99.90
4548;DHT22;2286;51.570;7.090;2024-03-06T05:57:55;2.30;99.90
4548;DHT22;2286;51.570;7.090;2024-03-06T06:00:22;2.20;99.90
4548;DHT22;2286;51.570;7.090;2024-03-06T06:02:49;2.20;99.90
4548;DHT22;2286;51.570;7.090;2024-03-06T06:05:18;2.20;99.90
4548;DHT22;2286;51.570;7.090;2024-03-06T06:07:45;2.10;99.90
4548;DHT22;2286;51.570;7.090;2024-03-06T06:10:12;2.00;99.90
4548;DHT22;2286;51.570;7.090;2024-03-06T06:12:39;1.90;99.90
4548;DHT22;2286;51.570;7.090;2024-03-06T06:15:07;1.90;99.90
4548;DHT22;2286;51.570;7.090;2024-03-06T06:17:34;2.00;99.90
4548;DHT22;2286;51.570;7.090;2024-03-06T06:20:03;2.10;99.90
4548;DHT22;2286;51.570;7.090;2024-03-06T06:22:36;2.10;99.90
4548;DHT22;2286;51.570;7.090;2024-03-06T06:25:04;2.20;99.90
4548;DHT22;2286;51.570;7.090;2024-03-06T06:27:32;2.20;99.90
4548;DHT22;2286;51.570;7.090;2024-03-06T06:29:59;2.10;99.90
4548;DHT22;2286;51.570;7.090;2024-03-06T06:32:26;2.20;99.90
4548;DHT22;2286;51.570;7.090;2024-03-06T06:34:53;2.20;99.90
4548;DHT22;2286;51.570;7.090;2024-03-06T06:37:21;2.20;99.90
4548;DHT22;2286;51.570;7.090;2024-03-06T06:39:50;2.30;99.90
4548;DHT22;2286;51.570;7.090;2024-03-06T06:42:17;2.30;99.90
4548;DHT22;2286;51.570;7.090;2024-03-06T06:44:44;2.30;99.90
4548;DHT22;2286;51.570;7.090;2024-03-06T06:47:10;2.30;99.90
4548;DHT22;2286;51.570;7.090;2024-03-06T06:49:37;2.30;99.90
4548;DHT22;2286;51.570;7.090;2024-03-06T06:52:04;2.30;99.90
4548;DHT22;2286;51.570;7.090;2024-03-06T06:54:31;2.40;99.90
4548;DHT22;2286;51.570;7.090;2024-03-06T06:56:59;2.40;99.90
4548;DHT22;2286;51.570;7.090;2024-03-06T06:59:26;2.50;99.90
4548;DHT22;2286;51.570;7.090;2024-03-06T07:01:54;2.50;99.90
4548;DHT22;2286;51.570;7.090;2024-03-06T07:04:21;2.50;99.90
4548;DHT22;2286;51.570;7.090;2024-03-06T07:06:50;2.60;99.90
4548;DHT22;2286;51.570;7.090;2024-03-06T07:09:16;2.60;99.90
4548;DHT22;2286;51.570;7.090;2024-03-06T07:11:44;2.60;99.90
4548;DHT22;2286;51.570;7.090;2024-03-06T07:14:13;2.70;99.90
4548;DHT22;2286;51.570;7.090;2024-03-06T07:16:42;2.70;99.90
4548;DHT22;2286;51.570;7.090;2024-03-06T07:19:09;2.80;99.90
4548;DHT22;2286;51.570;7.090;2024-03-06T07:21:36;2.80;99.90
4548;DHT22;2286;51.570;7.090;2024-03-06T07:24:04;2.90;99.90
4548;DHT22;2286;51.570;7.090;2024-03-06T07:26:32;2.80;99.90
4548;DHT22;2286;51.570;7.090;2024-03-06T07:28:59;2.90;99.90
4548;DHT22;2286;51.570;7.090;2024-03-06T07:31:27;3.00;99.90
4548;DHT22;2286;51.570;7.090;2024-03-06T07:33:54;3.00;99.90
4548;DHT22;2286;51.570;7.090;2024-03-06T07:36:21;3.10;99.90
4548;DHT22;2286;51.570;7.090;2024-03-06T07:38:48;3.10;99.90
4548;DHT22;2286;51.570;7.090;2024-03-06T07:41:15;3.20;99.90
4548;DHT22;2286;51.570;7.090;2024-03-06T07:43:42;3.20;99.90
4548;DHT22;2286;51.570;7.090;2024-03-06T07:46:09;3.30;99.90
4548;DHT22;2286;51.570;7.090;2024-03-06T07:48:42;3.40;99.90
4548;DHT22;2286;51.570;7.090;2024-03-06T07:51:09;3.50;99.90
4548;DHT22;2286;51.570;7.090;2024-03-06T07:53:36;3.60;99.90
4548;DHT22;2286;51.570;7.090;2024-03-06T07:56:03;3.70;99.90
4548;DHT22;2286;51.570;7.090;2024-03-06T07:58:30;3.90;99.90
4548;DHT22;2286;51.570;7.090;2024-03-06T08:00:57;4.00;99.90
4548;DHT22;2286;51.570;7.090;2024-03-06T08:03:28;4.10;99.90
4548;DHT22;2286;51.570;7.090;2024-03-06T08:05:56;4.20;99.90
4548;DHT22;2286;51.570;7.090;2024-03-06T08:08:23;4.20;99.90
4548;DHT22;2286;51.570;7.090;2024-03-06T08:10:50;4.50;99.90
4548;DHT22;2286;51.570;7.090;2024-03-06T08:13:17;4.70;99.90
4548;DHT22;2286;51.570;7.090;2024-03-06T08:15:44;4.80;99.90
4548;DHT22;2286;51.570;7.090;2024-03-06T08:18:12;4.90;99.90
4548;DHT22;2286;51.570;7.090;2024-03-06T08:20:40;5.00;99.90
4548;DHT22;2286;51.570;7.090;2024-03-06T08:23:09;5.10;99.90
4548;DHT22;2286;51.570;7.090;2024-03-06T08:25:36;5.30;99.90
4548;DHT22;2286;51.570;7.090;2024-03-06T08:28:04;5.40;99.90
4548;DHT22;2286;51.570;7.090;2024-03-06T08:30:31;5.50;99.90
4548;DHT22;2286;51.570;7.090;2024-03-06T08:32:58;5.70;99.90
4548;DHT22;2286;51.570;7.090;2024-03-06T08:35:25;5.80;99.90
4548;DHT22;2286;51.570;7.090;2024-03-06T08:37:52;5.90;99.90
4548;DHT22;2286;51.570;7.090;2024-03-06T08:40:21;6.10;99.90
4548;DHT22;2286;51.570;7.090;2024-03-06T08:42:48;6.30;99.90
4548;DHT22;2286;51.570;7.090;2024-03-06T08:45:15;6.40;99.90
4548;DHT22;2286;51.570;7.090;2024-03-06T08:47:43;6.50;99.90
4548;DHT22;2286;51.570;7.090;2024-03-06T08:50:10;6.60;99.90
4548;DHT22;2286;51.570;7.090;2024-03-06T08:52:38;6.70;99.90
4548;DHT22;2286;51.570;7.090;2024-03-06T08:55:06;6.90;99.90
4548;DHT22;2286;51.570;7.090;2024-03-06T08:57:35;6.90;99.90
4548;DHT22;2286;51.570;7.090;2024-03-06T09:00:03;6.90;99.90
4548;DHT22;2286;51.570;7.090;2024-03-06T09:02:30;7.10;99.90
4548;DHT22;2286;51.570;7.090;2024-03-06T09:04:57;7.20;99.90
4548;DHT22;2286;51.570;7.090;2024-03-06T09:07:23;7.40;99.90
4548;DHT22;2286;51.570;7.090;2024-03-06T09:09:50;7.40;99.90
4548;DHT22;2286;51.570;7.090;2024-03-06T09:12:18;7.60;99.90
4548;DHT22;2286;51.570;7.090;2024-03-06T09:14:46;7.70;99.90
4548;DHT22;2286;51.570;7.090;2024-03-06T09:17:13;7.70;99.90
4548;DHT22;2286;51.570;7.090;2024-03-06T09:19:41;7.60;99.90
4548;DHT22;2286;51.570;7.090;2024-03-06T09:22:08;7.80;99.90
4548;DHT22;2286;51.570;7.090;2024-03-06T09:24:34;8.10;99.90
4548;DHT22;2286;51.570;7.090;2024-03-06T09:27:03;8.30;99.90
4548;DHT22;2286;51.570;7.090;2024-03-06T09:29:30;8.30;99.90
4548;DHT22;2286;51.570;7.090;2024-03-06T09:31:59;8.40;99.90
4548;DHT22;2286;51.570;7.090;2024-03-06T09:34:26;8.80;99.90
4548;DHT22;2286;51.570;7.090;2024-03-06T09:36:53;9.30;99.90
4548;DHT22;2286;51.570;7.090;2024-03-06T09:39:20;9.60;99.90
4548;DHT22;2286;51.570;7.090;2024-03-06T09:41:49;9.70;99.90
4548;DHT22;2286;51.570;7.090;2024-03-06T09:44:16;9.70;99.90
4548;DHT22;2286;51.570;7.090;2024-03-06T09:46:45;9.50;99.90
4548;DHT22;2286;51.570;7.090;2024-03-06T09:49:15;9.60;99.90
4548;DHT22;2286;51.570;7.090;2024-03-06T09:51:44;9.90;99.90
4548;DHT22;2286;51.570;7.090;2024-03-06T09:54:12;10.20;99.90
4548;DHT22;2286;51.570;7.090;2024-03-06T09:56:41;10.10;99.90
4548;DHT22;2286;51.570;7.090;2024-03-06T09:59:08;10.30;99.90
4548;DHT22;2286;51.570;7.090;2024-03-06T10:01:36;10.60;99.90
4548;DHT22;2286;51.570;7.090;2024-03-06T10:04:19;10.80;99.90
4548;DHT22;2286;51.570;7.090;2024-03-06T10:06:46;10.60;99.90
4548;DHT22;2286;51.570;7.090;2024-03-06T10:09:17;10.40;99.90
4548;DHT22;2286;51.570;7.090;2024-03-06T10:11:43;10.20;99.90
4548;DHT22;2286;51.570;7.090;2024-03-06T10:14:10;9.90;99.90
4548;DHT22;2286;51.570;7.090;2024-03-06T10:16:37;10.20;99.90
4548;DHT22;2286;51.570;7.090;2024-03-06T10:19:18;10.90;79.00
4548;DHT22;2286;51.570;7.090;2024-03-06T10:21:47;11.20;1.00
4548;DHT22;2286;51.570;7.090;2024-03-06T10:24:20;11.90;99.90
4548;DHT22;2286;51.570;7.090;2024-03-06T10:26:49;12.70;1.00
4548;DHT22;2286;51.570;7.090;2024-03-06T10:29:16;13.20;99.90
4548;DHT22;2286;51.570;7.090;2024-03-06T10:31:49;13.70;1.00
4548;DHT22;2286;51.570;7.090;2024-03-06T10:34:18;14.00;99.90
4548;DHT22;2286;51.570;7.090;2024-03-06T10:36:45;14.20;99.90
4548;DHT22;2286;51.570;7.090;2024-03-06T10:39:17;14.70;99.90
4548;DHT22;2286;51.570;7.090;2024-03-06T10:41:46;15.20;1.00
4548;DHT22;2286;51.570;7.090;2024-03-06T10:44:21;15.20;1.00
4548;DHT22;2286;51.570;7.090;2024-03-06T10:46:55;15.70;1.00
4548;DHT22;2286;51.570;7.090;2024-03-06T10:49:25;16.00;1.00
4548;DHT22;2286;51.570;7.090;2024-03-06T10:51:54;16.50;99.90
4548;DHT22;2286;51.570;7.090;2024-03-06T10:54:22;17.00;99.90
4548;DHT22;2286;51.570;7.090;2024-03-06T10:56:50;16.60;99.90
4548;DHT22;2286;51.570;7.090;2024-03-06T10:59:19;16.80;99.90
4548;DHT22;2286;51.570;7.090;2024-03-06T11:01:46;17.10;99.90
4548;DHT22;2286;51.570;7.090;2024-03-06T11:04:13;17.40;99.90
4548;DHT22;2286;51.570;7.090;2024-03-06T11:06:42;17.90;99.90
4548;DHT22;2286;51.570;7.090;2024-03-06T11:09:10;18.30;99.90
4548;DHT22;2286;51.570;7.090;2024-03-06T11:11:47;18.30;99.90
4548;DHT22;2286;51.570;7.090;2024-03-06T11:14:15;17.90;99.90
4548;DHT22;2286;51.570;7.090;2024-03-06T11:16:57;18.50;99.90
4548;DHT22;2286;51.570;7.090;2024-03-06T11:19:25;18.70;99.90
4548;DHT22;2286;51.570;7.090;2024-03-06T11:21:54;18.90;99.90
4548;DHT22;2286;51.570;7.090;2024-03-06T11:24:22;18.50;99.90
4548;DHT22;2286;51.570;7.090;2024-03-06T11:26:50;18.50;99.90
4548;DHT22;2286;51.570;7.090;2024-03-06T11:29:18;18.00;99.90
4548;DHT22;2286;51.570;7.090;2024-03-06T11:32:02;17.60;99.90
4548;DHT22;2286;51.570;7.090;2024-03-06T11:34:32;17.20;99.90
4548;DHT22;2286;51.570;7.090;2024-03-06T11:37:03;16.60;99.90
4548;DHT22;2286;51.570;7.090;2024-03-06T11:39:35;16.20;99.90
4548;DHT22;2286;51.570;7.090;2024-03-06T11:42:03;15.90;99.90
4548;DHT22;2286;51.570;7.090;2024-03-06T11:44:34;15.70;99.90
4548;DHT22;2286;51.570;7.090;2024-03-06T11:47:02;15.50;99.90
4548;DHT22;2286;51.570;7.090;2024-03-06T11:49:30;15.10;99.90
4548;DHT22;2286;51.570;7.090;2024-03-06T11:52:02;14.60;99.90
4548;DHT22;2286;51.570;7.090;2024-03-06T11:54:30;14.40;99.90
4548;DHT22;2286;51.570;7.090;2024-03-06T11:56:59;14.30;1.00
4548;DHT22;2286;51.570;7.090;2024-03-06T11:59:28;14.10;99.90
4548;DHT22;2286;51.570;7.090;2024-03-06T12:01:55;14.00;1.00
4548;DHT22;2286;51.570;7.090;2024-03-06T12:04:23;13.90;1.00
4548;DHT22;2286;51.570;7.090;2024-03-06T12:06:51;14.10;1.00
4548;DHT22;2286;51.570;7.090;2024-03-06T12:09:19;14.10;1.00
4548;DHT22;2286;51.570;7.090;2024-03-06T12:11:47;14.10;1.00
4548;DHT22;2286;51.570;7.090;2024-03-06T12:14:14;14.80;99.90
4548;DHT22;2286;51.570;7.090;2024-03-06T12:16:43;15.90;99.90
4548;DHT22;2286;51.570;7.090;2024-03-06T12:19:10;17.50;99.90
4548;DHT22;2286;51.570;7.090;2024-03-06T12:21:39;19.00;99.90
4548;DHT22;2286;51.570;7.090;2024-03-06T12:24:07;18.80;99.90
4548;DHT22;2286;51.570;7.090;2024-03-06T12:26:36;19.00;99.90
4548;DHT22;2286;51.570;7.090;2024-03-06T12:29:04;19.80;99.90
4548;DHT22;2286;51.570;7.090;2024-03-06T12:31:31;20.40;99.90
4548;DHT22;2286;51.570;7.090;2024-03-06T12:33:59;21.40;99.90
4548;DHT22;2286;51.570;7.090;2024-03-06T12:36:28;20.70;99.90
4548;DHT22;2286;51.570;7.090;2024-03-06T12:38:57;19.70;99.90
4548;DHT22;2286;51.570;7.090;2024-03-06T12:41:25;19.00;99.90
4548;DHT22;2286;51.570;7.090;2024-03-06T12:43:54;18.70;99.90
4548;DHT22;2286;51.570;7.090;2024-03-06T12:46:22;18.20;99.90
4548;DHT22;2286;51.570;7.090;2024-03-06T12:48:49;17.70;99.90
4548;DHT22;2286;51.570;7.090;2024-03-06T12:51:16;17.10;99.90
4548;DHT22;2286;51.570;7.090;2024-03-06T12:53:43;16.70;99.90
4548;DHT22;2286;51.570;7.090;2024-03-06T12:56:10;16.40;99.90
4548;DHT22;2286;51.570;7.090;2024-03-06T12:58:37;16.10;99.90
4548;DHT22;2286;51.570;7.090;2024-03-06T13:01:05;15.70;99.90
4548;DHT22;2286;51.570;7.090;2024-03-06T13:03:32;15.60;99.90
4548;DHT22;2286;51.570;7.090;2024-03-06T13:05:59;15.70;99.90
4548;DHT22;2286;51.570;7.090;2024-03-06T13:08:26;16.70;99.90
4548;DHT22;2286;51.570;7.090;2024-03-06T13:10:53;17.80;99.90
4548;DHT22;2286;51.570;7.090;2024-03-06T13:13:21;18.30;99.90
4548;DHT22;2286;51.570;7.090;2024-03-06T13:15:49;19.30;99.90
4548;DHT22;2286;51.570;7.090;2024-03-06T13:18:17;19.30;99.90
4548;DHT22;2286;51.570;7.090;2024-03-06T13:20:45;19.80;99.90
4548;DHT22;2286;51.570;7.090;2024-03-06T13:23:12;20.00;99.90
4548;DHT22;2286;51.570;7.090;2024-03-06T13:25:39;20.10;99.90
4548;DHT22;2286;51.570;7.090;2024-03-06T13:28:07;20.60;99.90
4548;DHT22;2286;51.570;7.090;2024-03-06T13:30:34;21.10;99.90
4548;DHT22;2286;51.570;7.090;2024-03-06T13:33:01;20.70;99.90
4548;DHT22;2286;51.570;7.090;2024-03-06T13:35:29;20.20;99.90
4548;DHT22;2286;51.570;7.090;2024-03-06T13:37:56;19.50;99.90
4548;DHT22;2286;51.570;7.090;2024-03-06T13:40:23;19.30;99.90
4548;DHT22;2286;51.570;7.090;2024-03-06T13:42:51;20.40;99.90
4548;DHT22;2286;51.570;7.090;2024-03-06T13:45:18;22.00;99.90
4548;DHT22;2286;51.570;7.090;2024-03-06T13:47:45;22.80;99.90
4548;DHT22;2286;51.570;7.090;2024-03-06T13:50:14;23.60;99.90
4548;DHT22;2286;51.570;7.090;2024-03-06T13:52:43;24.00;99.90
4548;DHT22;2286;51.570;7.090;2024-03-06T13:55:10;24.10;99.90
4548;DHT22;2286;51.570;7.090;2024-03-06T13:57:40;24.50;99.90
4548;DHT22;2286;51.570;7.090;2024-03-06T14:00:08;24.70;99.90
4548;DHT22;2286;51.570;7.090;2024-03-06T14:02:38;24.90;99.90
4548;DHT22;2286;51.570;7.090;2024-03-06T14:05:05;24.60;99.90
4548;DHT22;2286;51.570;7.090;2024-03-06T14:07:33;24.60;99.90
4548;DHT22;2286;51.570;7.090;2024-03-06T14:10:02;24.90;99.90
4548;DHT22;2286;51.570;7.090;2024-03-06T14:12:29;24.90;99.90
4548;DHT22;2286;51.570;7.090;2024-03-06T14:14:56;24.00;99.90
4548;DHT22;2286;51.570;7.090;2024-03-06T14:17:22;23.70;99.90
4548;DHT22;2286;51.570;7.090;2024-03-06T14:19:49;24.20;99.90
4548;DHT22;2286;51.570;7.090;2024-03-06T14:22:16;25.00;99.90
4548;DHT22;2286;51.570;7.090;2024-03-06T14:24:43;25.30;99.90
4548;DHT22;2286;51.570;7.090;2024-03-06T14:27:12;25.40;99.90
4548;DHT22;2286;51.570;7.090;2024-03-06T14:29:39;25.80;99.90
4548;DHT22;2286;51.570;7.090;2024-03-06T14:32:07;25.30;99.90
4548;DHT22;2286;51.570;7.090;2024-03-06T14:34:34;24.60;99.90
4548;DHT22;2286;51.570;7.090;2024-03-06T14:37:01;23.40;99.90
4548;DHT22;2286;51.570;7.090;2024-03-06T14:39:28;21.90;99.90
4548;DHT22;2286;51.570;7.090;2024-03-06T14:41:55;21.00;99.90
4548;DHT22;2286;51.570;7.090;2024-03-06T14:44:23;20.20;99.90
4548;DHT22;2286;51.570;7.090;2024-03-06T14:46:50;19.30;99.90
4548;DHT22;2286;51.570;7.090;2024-03-06T14:49:17;18.50;99.90
4548;DHT22;2286;51.570;7.090;2024-03-06T14:51:44;17.80;99.90
4548;DHT22;2286;51.570;7.090;2024-03-06T14:54:10;17.50;99.90
4548;DHT22;2286;51.570;7.090;2024-03-06T14:56:37;17.40;99.90
4548;DHT22;2286;51.570;7.090;2024-03-06T14:59:04;17.00;99.90
4548;DHT22;2286;51.570;7.090;2024-03-06T15:01:32;16.60;99.90
4548;DHT22;2286;51.570;7.090;2024-03-06T15:03:59;16.40;99.90
4548;DHT22;2286;51.570;7.090;2024-03-06T15:06:26;16.40;99.90
4548;DHT22;2286;51.570;7.090;2024-03-06T15:08:53;16.50;99.90
4548;DHT22;2286;51.570;7.090;2024-03-06T15:11:21;16.40;99.90
4548;DHT22;2286;51.570;7.090;2024-03-06T15:13:48;16.20;99.90
4548;DHT22;2286;51.570;7.090;2024-03-06T15:16:16;16.00;99.90
4548;DHT22;2286;51.570;7.090;2024-03-06T15:18:44;16.20;99.90
4548;DHT22;2286;51.570;7.090;2024-03-06T15:21:12;17.20;99.90
4548;DHT22;2286;51.570;7.090;2024-03-06T15:23:39;18.30;99.90
4548;DHT22;2286;51.570;7.090;2024-03-06T15:26:06;19.50;99.90
4548;DHT22;2286;51.570;7.090;2024-03-06T15:28:33;20.20;99.90
4548;DHT22;2286;51.570;7.090;2024-03-06T15:31:00;21.10;99.90
4548;DHT22;2286;51.570;7.090;2024-03-06T15:33:29;21.70;99.90
4548;DHT22;2286;51.570;7.090;2024-03-06T15:35:58;22.10;99.90
4548;DHT22;2286;51.570;7.090;2024-03-06T15:38:25;22.60;99.90
4548;DHT22;2286;51.570;7.090;2024-03-06T15:40:53;23.10;99.90
4548;DHT22;2286;51.570;7.090;2024-03-06T15:43:19;22.80;99.90
4548;DHT22;2286;51.570;7.090;2024-03-06T15:45:47;21.90;99.90
4548;DHT22;2286;51.570;7.090;2024-03-06T15:48:13;21.00;99.90
4548;DHT22;2286;51.570;7.090;2024-03-06T15:50:40;21.10;99.90
4548;DHT22;2286;51.570;7.090;2024-03-06T15:53:09;21.70;99.90
4548;DHT22;2286;51.570;7.090;2024-03-06T15:55:37;22.00;99.90
4548;DHT22;2286;51.570;7.090;2024-03-06T15:58:04;22.20;99.90
4548;DHT22;2286;51.570;7.090;2024-03-06T16:00:31;22.00;99.90
4548;DHT22;2286;51.570;7.090;2024-03-06T16:02:58;21.40;99.90
4548;DHT22;2286;51.570;7.090;2024-03-06T16:05:25;20.30;99.90
4548;DHT22;2286;51.570;7.090;2024-03-06T16:07:56;19.10;99.90
4548;DHT22;2286;51.570;7.090;2024-03-06T16:10:26;18.00;99.90
4548;DHT22;2286;51.570;7.090;2024-03-06T16:12:53;17.10;99.90
4548;DHT22;2286;51.570;7.090;2024-03-06T16:15:20;16.70;99.90